Addy, Washington
Current Conditions -  °F | °C
As of 12:53 AM on Monday 20 Oct 2014 (Local Time) from KDEW Reporting Station
Clear Clear  
Wind Chill: 11°   Ceiling: Unl
Heat Index: 11°   Visibility: 10mi
Dew Point:   Wind: 3mph
Humidity: 83%   Direction: 40°NE
Pressure: 29.77"   Gusts: NA
Location:  48.36°N, 117.84°W
Report Text: KDEW 200753Z AUTO 04003KT 10SM CLR 11/08 A2977 RMK AO2 SLP076 T01060078 402170083
Loading
Personal Weather Stations






























Interactive Weather Map
Tropical Storm Tracking
New forecast layout! Learn more

10-Day Weather Forecast

Advertisements
Track Severe Weather on mobile